createdAt,value
2022-08-23T00:02:23.507Z,3.00
2022-08-23T00:05:03.643Z,3.90
2022-08-23T00:07:38.468Z,3.10
2022-08-23T00:10:06.963Z,3.77
2022-08-23T00:12:33.715Z,3.50
2022-08-23T00:15:00.823Z,3.87
2022-08-23T00:17:34.398Z,3.30
2022-08-23T00:20:04.363Z,3.00
2022-08-23T00:22:30.862Z,3.40
2022-08-23T00:24:57.401Z,3.90
2022-08-23T00:27:23.917Z,3.63
2022-08-23T00:29:52.770Z,3.40
2022-08-23T00:32:31.932Z,2.97
2022-08-23T00:34:59.775Z,3.60
2022-08-23T00:37:27.229Z,3.40
2022-08-23T00:39:53.847Z,3.10
2022-08-23T00:42:41.909Z,3.70
2022-08-23T00:45:29.187Z,3.60
2022-08-23T00:47:56.031Z,3.73
2022-08-23T00:50:37.069Z,3.90
2022-08-23T00:53:16.250Z,4.20
2022-08-23T00:55:45.613Z,3.83
2022-08-23T00:58:14.260Z,2.97
2022-08-23T01:00:40.837Z,3.70
2022-08-23T01:03:10.145Z,3.63
2022-08-23T01:05:43.110Z,3.40
2022-08-23T01:08:09.674Z,3.90
2022-08-23T01:10:48.032Z,3.83
2022-08-23T01:13:21.429Z,4.00
2022-08-23T01:15:52.216Z,3.70
2022-08-23T01:18:22.057Z,3.90
2022-08-23T01:21:15.021Z,4.30
2022-08-23T01:23:47.793Z,3.90
2022-08-23T01:26:21.750Z,4.10
2022-08-23T01:28:49.145Z,4.20
2022-08-23T01:31:16.555Z,4.17
2022-08-23T01:33:43.727Z,4.60
2022-08-23T01:36:13.147Z,4.10
2022-08-23T01:38:39.777Z,4.13
2022-08-23T01:41:09.665Z,4.20
2022-08-23T01:43:36.219Z,4.10
2022-08-23T01:46:14.688Z,4.03
2022-08-23T01:48:41.437Z,3.90
2022-08-23T01:51:08.047Z,5.27
2022-08-23T01:53:34.608Z,4.00
2022-08-23T01:56:03.904Z,4.07
2022-08-23T01:58:32.340Z,3.97
2022-08-23T02:00:59.293Z,3.97
2022-08-23T02:03:26.042Z,4.60
2022-08-23T02:08:37.827Z,3.93
2022-08-23T02:11:12.792Z,3.80
2022-08-23T02:13:39.378Z,4.47
2022-08-23T02:16:06.126Z,4.07
2022-08-23T02:18:32.716Z,4.87
2022-08-23T02:21:00.389Z,4.03
2022-08-23T02:23:27.186Z,4.50
2022-08-23T02:25:54.148Z,4.10
2022-08-23T02:28:22.900Z,4.20
2022-08-23T02:30:49.875Z,4.10
2022-08-23T02:33:16.771Z,4.80
2022-08-23T02:35:43.938Z,4.60
2022-08-23T02:38:11.947Z,3.90
2022-08-23T02:40:39.477Z,4.30
2022-08-23T02:43:06.630Z,4.37
2022-08-23T02:45:34.006Z,4.80
2022-08-23T02:48:01.618Z,4.67
2022-08-23T02:50:28.328Z,4.53
2022-08-23T02:52:55.516Z,4.60
2022-08-23T02:55:22.113Z,4.20
2022-08-23T02:57:48.739Z,4.10
2022-08-23T03:00:16.521Z,4.80
2022-08-23T03:02:43.324Z,4.77
2022-08-23T03:05:11.118Z,4.83
2022-08-23T03:07:38.619Z,5.40
2022-08-23T03:10:07.285Z,4.50
2022-08-23T03:12:33.839Z,5.20
2022-08-23T03:15:00.405Z,5.47
2022-08-23T03:17:27.320Z,4.63
2022-08-23T03:19:53.975Z,5.13
2022-08-23T03:22:22.994Z,5.57
2022-08-23T03:24:49.579Z,5.83
2022-08-23T03:27:16.087Z,5.57
2022-08-23T03:29:42.810Z,6.30
2022-08-23T03:32:09.368Z,6.00
2022-08-23T03:34:36.709Z,5.87
2022-08-23T03:37:03.381Z,6.23
2022-08-23T03:39:29.915Z,6.00
2022-08-23T03:41:56.481Z,6.40
2022-08-23T03:44:23.001Z,5.70
2022-08-23T03:46:50.469Z,6.10
2022-08-23T03:49:17.078Z,6.30
2022-08-23T03:51:43.587Z,6.30
2022-08-23T03:54:10.909Z,5.90
2022-08-23T03:56:40.155Z,5.17
2022-08-23T03:59:13.516Z,5.80
2022-08-23T04:01:40.228Z,6.57
2022-08-23T04:04:06.876Z,6.60
2022-08-23T04:06:33.417Z,6.00
2022-08-23T04:09:00.701Z,6.00
2022-08-23T04:11:27.708Z,6.20
2022-08-23T04:13:54.341Z,5.50
2022-08-23T04:16:21.089Z,7.10
2022-08-23T04:18:48.411Z,6.63
2022-08-23T04:21:18.501Z,7.20
2022-08-23T04:23:45.689Z,7.17
2022-08-23T04:26:12.407Z,7.33
2022-08-23T04:28:40.397Z,7.17
2022-08-23T04:31:07.159Z,7.00
2022-08-23T04:33:34.405Z,6.97
2022-08-23T04:36:01.804Z,6.47
2022-08-23T04:38:28.893Z,6.73
2022-08-23T04:41:14.758Z,7.30
2022-08-23T04:43:46.740Z,6.10
2022-08-23T04:46:15.446Z,6.47
2022-08-23T04:48:43.086Z,6.30
2022-08-23T04:51:09.602Z,7.07
2022-08-23T04:53:36.207Z,6.93
2022-08-23T04:56:04.271Z,6.20
2022-08-23T04:58:32.767Z,7.10
2022-08-23T05:01:03.878Z,6.73
2022-08-23T05:03:31.892Z,6.83
2022-08-23T05:05:58.587Z,6.67
2022-08-23T05:08:25.496Z,6.67
2022-08-23T05:10:52.438Z,7.40
2022-08-23T05:13:19.065Z,7.10
2022-08-23T05:15:46.121Z,6.13
2022-08-23T05:18:13.239Z,5.70
2022-08-23T05:20:39.719Z,6.50
2022-08-23T05:23:06.353Z,6.60
2022-08-23T05:25:52.455Z,6.17
2022-08-23T05:28:23.350Z,6.77
2022-08-23T05:30:58.545Z,5.50
2022-08-23T05:33:27.518Z,5.87
2022-08-23T05:35:54.571Z,5.70
2022-08-23T05:38:21.730Z,6.30
2022-08-23T05:40:55.169Z,6.93
2022-08-23T05:43:22.522Z,7.40
2022-08-23T05:45:49.061Z,6.00
2022-08-23T05:48:15.937Z,6.33
2022-08-23T05:50:45.047Z,6.43
2022-08-23T05:53:11.694Z,6.90
2022-08-23T05:55:38.608Z,5.80
2022-08-23T05:58:05.478Z,6.40
2022-08-23T06:00:37.999Z,5.97
2022-08-23T06:03:07.210Z,6.43
2022-08-23T06:05:34.124Z,5.50
2022-08-23T06:08:00.982Z,5.40
2022-08-23T06:10:27.693Z,5.60
2022-08-23T06:12:54.305Z,5.80
2022-08-23T06:15:20.931Z,7.20
2022-08-23T06:17:47.445Z,5.47
2022-08-23T06:20:15.795Z,6.33
2022-08-23T06:22:42.411Z,5.53
2022-08-23T06:25:09.767Z,6.07
2022-08-23T06:27:36.621Z,5.63
2022-08-23T06:30:03.786Z,5.70
2022-08-23T06:32:30.391Z,5.43
2022-08-23T06:35:33.337Z,5.80
2022-08-23T06:37:43.562Z,5.83
2022-08-23T06:40:10.530Z,5.20
2022-08-23T06:42:38.625Z,5.30
2022-08-23T06:45:06.455Z,4.60
2022-08-23T06:47:32.992Z,5.40
2022-08-23T06:49:59.767Z,5.27
2022-08-23T06:52:27.503Z,4.60
2022-08-23T06:54:54.674Z,4.40
2022-08-23T06:57:21.337Z,5.13
2022-08-23T06:59:49.696Z,4.50
2022-08-23T07:02:16.863Z,4.20
2022-08-23T07:04:43.458Z,4.87
2022-08-23T07:07:11.801Z,4.33
2022-08-23T07:09:39.546Z,4.50
2022-08-23T07:12:06.597Z,4.50
2022-08-23T07:14:33.370Z,3.77
2022-08-23T07:17:01.263Z,3.77
2022-08-23T07:19:31.410Z,3.90
2022-08-23T07:21:58.757Z,3.70
2022-08-23T07:24:29.470Z,3.53
2022-08-23T07:27:01.200Z,3.60
2022-08-23T07:29:28.356Z,3.10
2022-08-23T07:31:56.174Z,3.40
2022-08-23T07:34:23.689Z,3.37
2022-08-23T07:36:51.183Z,3.50
2022-08-23T07:39:18.512Z,3.43
2022-08-23T07:41:46.764Z,3.30
2022-08-23T07:44:14.312Z,3.47
2022-08-23T07:46:46.062Z,4.20
2022-08-23T07:49:13.593Z,3.77
2022-08-23T07:51:42.118Z,3.60
2022-08-23T07:54:10.277Z,3.17
2022-08-23T07:56:37.597Z,3.60
2022-08-23T07:59:05.674Z,4.23
2022-08-23T08:01:32.434Z,3.30
2022-08-23T08:04:00.987Z,3.40
2022-08-23T08:06:35.426Z,3.60
2022-08-23T08:09:03.632Z,3.83
2022-08-23T08:11:34.778Z,3.30
2022-08-23T08:14:07.615Z,3.70
2022-08-23T08:16:42.644Z,3.60
2022-08-23T08:19:11.268Z,3.27
2022-08-23T08:21:42.276Z,3.20
2022-08-23T08:24:12.907Z,3.90
2022-08-23T08:26:40.504Z,3.40
2022-08-23T08:29:07.233Z,3.90
2022-08-23T08:31:36.315Z,3.20
2022-08-23T08:34:02.955Z,3.30
2022-08-23T08:36:44.761Z,3.73
2022-08-23T08:39:19.970Z,3.43
2022-08-23T08:42:13.937Z,3.67
2022-08-23T08:44:47.420Z,3.80
2022-08-23T08:47:17.589Z,3.20
2022-08-23T08:50:21.143Z,3.37
2022-08-23T08:52:52.832Z,3.20
2022-08-23T08:55:24.533Z,3.20
2022-08-23T08:57:53.566Z,3.30
2022-08-23T09:00:29.393Z,4.03
2022-08-23T09:02:57.464Z,3.20
2022-08-23T09:05:27.634Z,3.73
2022-08-23T09:08:18.722Z,3.33
2022-08-23T09:10:51.678Z,3.73
2022-08-23T09:13:33.546Z,3.33
2022-08-23T09:16:00.145Z,3.77
2022-08-23T09:18:27.766Z,3.70
2022-08-23T09:20:55.556Z,3.20
2022-08-23T09:23:29.467Z,3.27
2022-08-23T09:26:03.819Z,3.67
2022-08-23T09:28:34.321Z,3.30
2022-08-23T09:31:02.148Z,3.63
2022-08-23T09:33:47.987Z,3.80
2022-08-23T09:36:25.503Z,3.80
2022-08-23T09:39:07.599Z,3.67
2022-08-23T09:41:37.737Z,3.40
2022-08-23T09:44:07.739Z,3.53
2022-08-23T09:46:39.162Z,4.30
2022-08-23T09:49:28.238Z,4.30
2022-08-23T09:51:56.910Z,4.27
2022-08-23T09:54:30.602Z,4.20
2022-08-23T09:57:02.877Z,4.13
2022-08-23T09:59:45.594Z,4.07
2022-08-23T10:02:21.225Z,4.05
2022-08-23T10:04:56.885Z,4.32
2022-08-23T10:07:40.414Z,4.40
2022-08-23T10:10:23.860Z,4.43
2022-08-23T10:12:51.707Z,4.88
2022-08-23T10:15:18.547Z,3.92
2022-08-23T10:18:09.551Z,4.47
2022-08-23T10:20:41.862Z,4.65
2022-08-23T10:23:24.725Z,4.50
2022-08-23T10:25:55.488Z,4.90
2022-08-23T10:29:00.045Z,5.18
2022-08-23T10:31:31.280Z,5.00
2022-08-23T10:34:21.259Z,4.38
2022-08-23T10:37:06.317Z,5.60
2022-08-23T10:39:33.170Z,4.20
2022-08-23T10:42:07.849Z,4.55
2022-08-23T10:44:46.800Z,4.30
2022-08-23T10:47:41.304Z,4.50
2022-08-23T10:50:15.246Z,4.43
2022-08-23T10:52:55.168Z,5.20
2022-08-23T10:55:43.872Z,5.45
2022-08-23T10:58:15.614Z,5.75
2022-08-23T11:00:42.725Z,6.32
2022-08-23T11:03:28.916Z,6.85
2022-08-23T11:06:24.990Z,6.85
2022-08-23T11:08:59.861Z,6.20
2022-08-23T11:11:47.659Z,6.25
2022-08-23T11:14:39.971Z,5.40
2022-08-23T11:17:08.906Z,5.13
2022-08-23T11:19:56.230Z,4.60
2022-08-23T11:22:26.094Z,4.50
2022-08-23T11:25:06.019Z,4.72
2022-08-23T11:27:41.117Z,4.70
2022-08-23T11:30:32.846Z,4.63
2022-08-23T11:33:15.310Z,4.68
2022-08-23T11:35:43.425Z,4.47
2022-08-23T11:38:11.670Z,3.97
2022-08-23T11:40:41.208Z,4.28
2022-08-23T11:43:20.626Z,3.80
2022-08-23T11:45:47.599Z,4.40
2022-08-23T11:48:35.189Z,4.35
2022-08-23T11:51:22.240Z,4.60
2022-08-23T11:53:54.547Z,4.38
2022-08-23T11:56:28.247Z,4.13
2022-08-23T11:59:17.119Z,4.68
2022-08-23T12:01:45.642Z,4.18
2022-08-23T12:04:42.219Z,4.38
2022-08-23T12:07:13.159Z,4.35
2022-08-23T12:09:43.020Z,3.87
2022-08-23T12:12:27.136Z,4.00
2022-08-23T12:14:56.756Z,3.70
2022-08-23T12:17:25.908Z,3.67
2022-08-23T12:19:54.036Z,4.00
2022-08-23T12:22:23.912Z,3.73
2022-08-23T12:25:08.050Z,3.63
2022-08-23T12:27:44.726Z,4.10
2022-08-23T12:30:50.416Z,3.77
2022-08-23T12:33:32.163Z,4.00
2022-08-23T12:35:58.677Z,4.17
2022-08-23T12:38:56.677Z,3.80
2022-08-23T12:41:29.389Z,4.07
2022-08-23T12:44:02.021Z,3.77
2022-08-23T12:46:40.011Z,4.60
2022-08-23T12:49:09.083Z,3.83
2022-08-23T12:51:42.036Z,4.37
2022-08-23T12:54:14.080Z,3.90
2022-08-23T12:56:40.757Z,4.00
2022-08-23T12:59:27.592Z,3.20
2022-08-23T13:01:54.648Z,3.70
2022-08-23T13:04:21.565Z,3.57
2022-08-23T13:06:59.232Z,3.80
2022-08-23T13:09:33.011Z,4.10
2022-08-23T13:12:00.923Z,3.90
2022-08-23T13:14:34.352Z,4.30
2022-08-23T13:17:39.975Z,4.40
2022-08-23T13:20:06.555Z,4.07
2022-08-23T13:22:34.339Z,4.10
2022-08-23T13:25:27.458Z,3.60
2022-08-23T13:27:59.359Z,3.77
2022-08-23T13:30:37.639Z,3.50
2022-08-23T13:33:04.216Z,3.33
2022-08-23T13:35:41.211Z,3.70
2022-08-23T13:38:08.109Z,3.57
2022-08-23T13:40:55.769Z,3.20
2022-08-23T13:43:55.296Z,3.50
2022-08-23T13:46:24.709Z,3.27
2022-08-23T13:48:56.788Z,3.50
2022-08-23T13:51:38.811Z,3.90
2022-08-23T13:54:10.213Z,3.27
2022-08-23T13:56:49.073Z,3.40
2022-08-23T13:59:34.379Z,3.43
2022-08-23T14:02:03.341Z,3.37
2022-08-23T14:04:30.122Z,3.80
2022-08-23T14:06:56.686Z,3.37
2022-08-23T14:09:23.286Z,4.10
2022-08-23T14:11:53.801Z,4.07
2022-08-23T14:14:20.584Z,3.33
2022-08-23T14:16:47.211Z,4.10
2022-08-23T14:19:16.714Z,3.50
2022-08-23T14:22:00.435Z,3.40
2022-08-23T14:24:27.205Z,3.30
2022-08-23T14:26:55.373Z,3.70
2022-08-23T14:29:23.493Z,3.20
2022-08-23T14:31:51.564Z,3.30
2022-08-23T14:34:18.414Z,3.70
2022-08-23T14:38:00.232Z,3.67
2022-08-23T14:39:31.470Z,4.57
2022-08-23T14:41:58.117Z,3.27
2022-08-23T14:44:27.901Z,3.93
2022-08-23T14:46:56.842Z,4.23
2022-08-23T14:49:23.415Z,3.90
2022-08-23T14:51:50.442Z,4.00
2022-08-23T14:54:22.649Z,4.07
2022-08-23T14:56:49.545Z,3.63
2022-08-23T14:59:16.285Z,3.50
2022-08-23T15:01:42.981Z,4.60
2022-08-23T15:04:10.081Z,3.70
2022-08-23T15:06:54.969Z,4.00
2022-08-23T15:09:27.259Z,3.40
2022-08-23T15:14:41.433Z,3.80
2022-08-23T15:17:07.988Z,3.63
2022-08-23T15:19:34.513Z,3.53
2022-08-23T15:22:06.475Z,4.00
2022-08-23T15:24:45.574Z,3.93
2022-08-23T15:27:12.443Z,3.63
2022-08-23T15:29:39.061Z,3.50
2022-08-23T15:32:05.742Z,3.77
2022-08-23T15:34:35.449Z,3.30
2022-08-23T15:37:02.068Z,4.40
2022-08-23T15:39:29.938Z,8.40
2022-08-23T15:41:56.474Z,3.70
2022-08-23T15:44:23.243Z,4.43
2022-08-23T15:46:49.983Z,3.63
2022-08-23T15:49:18.498Z,3.87
2022-08-23T15:51:45.754Z,3.73
2022-08-23T15:54:12.470Z,3.50
2022-08-23T15:56:45.188Z,4.00
2022-08-23T15:59:14.471Z,3.93
2022-08-23T16:01:42.006Z,3.63
2022-08-23T16:04:09.261Z,3.67
2022-08-23T16:06:37.253Z,3.97
2022-08-23T16:09:05.961Z,3.93
2022-08-23T16:11:33.080Z,3.47
2022-08-23T16:13:59.646Z,3.93
2022-08-23T16:16:30.840Z,3.70
2022-08-23T16:18:59.644Z,4.03
2022-08-23T16:21:28.866Z,3.50
2022-08-23T16:23:57.449Z,3.60
2022-08-23T16:26:32.345Z,3.87
2022-08-23T16:29:03.008Z,3.53
2022-08-23T16:31:37.420Z,3.63
2022-08-23T16:34:14.036Z,3.67
2022-08-23T16:36:48.257Z,4.07
2022-08-23T16:39:16.025Z,3.40
2022-08-23T16:41:42.624Z,4.00
2022-08-23T16:44:09.826Z,3.23
2022-08-23T16:46:36.661Z,3.80
2022-08-23T16:49:03.801Z,3.03
2022-08-23T16:51:30.375Z,3.23
2022-08-23T16:54:02.882Z,3.47
2022-08-23T16:56:33.990Z,3.47
2022-08-23T16:59:01.618Z,3.40
2022-08-23T17:01:29.372Z,3.30
2022-08-23T17:03:56.185Z,3.10
2022-08-23T17:06:22.766Z,3.43
2022-08-23T17:08:49.571Z,3.40
2022-08-23T17:11:19.202Z,3.20
2022-08-23T17:13:46.207Z,3.10
2022-08-23T17:16:12.907Z,3.63
2022-08-23T17:18:39.992Z,3.90
2022-08-23T17:21:07.432Z,3.43
2022-08-23T17:23:39.254Z,3.27
2022-08-23T17:26:08.187Z,3.03
2022-08-23T17:28:35.131Z,3.20
2022-08-23T17:31:01.961Z,3.83
2022-08-23T17:33:28.632Z,3.73
2022-08-23T17:35:55.144Z,3.53
2022-08-23T17:38:21.637Z,3.73
2022-08-23T17:40:49.505Z,3.37
2022-08-23T17:43:16.271Z,3.50
2022-08-23T17:45:46.580Z,3.37
2022-08-23T17:48:14.742Z,3.37
2022-08-23T17:50:43.560Z,3.47
2022-08-23T17:53:11.272Z,3.10
2022-08-23T17:55:39.229Z,3.43
2022-08-23T17:58:07.565Z,3.77
2022-08-23T18:00:35.800Z,3.77
2022-08-23T18:03:03.291Z,3.37
2022-08-23T18:05:31.468Z,5.97
2022-08-23T18:07:57.975Z,15.33
2022-08-23T18:10:25.326Z,4.50
2022-08-23T18:12:52.275Z,4.00
2022-08-23T18:15:18.935Z,4.20
2022-08-23T18:17:45.816Z,3.40
2022-08-23T18:20:13.037Z,6.20
2022-08-23T18:22:40.041Z,7.40
2022-08-23T18:25:09.241Z,8.13
2022-08-23T18:27:54.402Z,4.63
2022-08-23T18:30:21.461Z,3.53
2022-08-23T18:32:47.981Z,4.97
2022-08-23T18:35:15.008Z,6.77
2022-08-23T18:37:41.952Z,4.57
2022-08-23T18:40:10.057Z,4.23
2022-08-23T18:42:37.407Z,4.80
2022-08-23T18:45:05.303Z,11.73
2022-08-23T18:47:32.198Z,4.00
2022-08-23T18:49:58.695Z,3.83
2022-08-23T18:52:27.481Z,5.10
2022-08-23T18:54:57.434Z,4.00
2022-08-23T18:57:24.026Z,3.70
2022-08-23T18:59:50.528Z,3.70
2022-08-23T19:02:17.667Z,3.73
2022-08-23T19:04:44.398Z,4.10
2022-08-23T19:07:11.013Z,3.57
2022-08-23T19:09:38.113Z,4.60
2022-08-23T19:12:06.382Z,4.97
2022-08-23T19:14:35.497Z,5.60
2022-08-23T19:17:04.734Z,3.73
2022-08-23T19:19:31.383Z,4.10
2022-08-23T19:21:58.391Z,3.70
2022-08-23T19:24:25.202Z,4.67
2022-08-23T19:26:52.508Z,3.87
2022-08-23T19:29:20.575Z,7.53
2022-08-23T19:31:48.446Z,7.63
2022-08-23T19:34:17.409Z,5.20
2022-08-23T19:36:48.263Z,4.23
2022-08-23T19:39:18.552Z,3.70
2022-08-23T19:41:46.224Z,4.10
2022-08-23T19:44:12.854Z,3.43
2022-08-23T19:46:42.052Z,4.33
2022-08-23T19:49:10.297Z,6.40
2022-08-23T19:51:37.105Z,4.40
2022-08-23T19:54:04.770Z,3.70
2022-08-23T19:56:41.271Z,4.13
2022-08-23T19:59:12.111Z,4.70
2022-08-23T20:01:39.524Z,4.30
2022-08-23T20:04:09.114Z,7.70
2022-08-23T20:06:35.836Z,8.90
2022-08-23T20:09:02.975Z,4.03
2022-08-23T20:11:31.842Z,3.90
2022-08-23T20:14:00.163Z,3.90
2022-08-23T20:16:27.658Z,5.07
2022-08-23T20:18:55.292Z,7.37
2022-08-23T20:21:23.579Z,14.20
2022-08-23T20:24:04.241Z,11.27
2022-08-23T20:26:40.894Z,4.13
2022-08-23T20:29:19.235Z,4.17
2022-08-23T20:31:53.181Z,3.97
2022-08-23T20:34:20.060Z,4.20
2022-08-23T20:36:46.611Z,7.30
2022-08-23T20:39:14.300Z,7.73
2022-08-23T20:41:41.460Z,6.10
2022-08-23T20:44:09.270Z,4.73
2022-08-23T20:46:35.943Z,4.47
2022-08-23T20:49:03.091Z,4.40
2022-08-23T20:51:29.734Z,4.40
2022-08-23T20:53:56.806Z,4.00
2022-08-23T20:56:24.133Z,4.50
2022-08-23T20:58:51.443Z,4.67
2022-08-23T21:01:18.872Z,4.70
2022-08-23T21:03:45.779Z,4.33
2022-08-23T21:06:21.841Z,4.90
2022-08-23T21:08:53.440Z,4.60
2022-08-23T21:11:21.995Z,4.83
2022-08-23T21:13:48.613Z,4.30
2022-08-23T21:16:16.321Z,4.67
2022-08-23T21:18:42.942Z,3.90
2022-08-23T21:21:10.101Z,4.70
2022-08-23T21:23:37.371Z,4.03
2022-08-23T21:26:04.555Z,4.50
2022-08-23T21:28:32.717Z,4.67
2022-08-23T21:31:11.843Z,4.50
2022-08-23T21:33:40.297Z,4.60
2022-08-23T21:36:07.730Z,5.17
2022-08-23T21:38:34.582Z,4.30
2022-08-23T21:41:04.619Z,4.70
2022-08-23T21:43:32.761Z,4.90
2022-08-23T21:45:59.305Z,5.70
2022-08-23T21:48:25.916Z,5.10
2022-08-23T21:50:52.525Z,5.13
2022-08-23T21:53:20.974Z,5.60
2022-08-23T21:55:47.901Z,6.20
2022-08-23T21:58:14.469Z,5.67
2022-08-23T22:00:41.454Z,5.10
2022-08-23T22:03:09.109Z,5.47
2022-08-23T22:05:43.480Z,5.27
2022-08-23T22:08:10.817Z,5.20
2022-08-23T22:10:44.891Z,5.17
2022-08-23T22:13:25.781Z,5.77
2022-08-23T22:15:52.343Z,6.07
2022-08-23T22:18:19.486Z,5.37
2022-08-23T22:20:46.483Z,5.07
2022-08-23T22:23:13.278Z,5.77
2022-08-23T22:25:39.840Z,5.93
2022-08-23T22:28:06.364Z,6.13
2022-08-23T22:30:32.871Z,6.30
2022-08-23T22:32:59.567Z,5.77
2022-08-23T22:35:26.100Z,5.63
2022-08-23T22:38:12.240Z,5.80
2022-08-23T22:40:39.436Z,7.10
2022-08-23T22:43:06.894Z,5.90
2022-08-23T22:45:33.607Z,6.03
2022-08-23T22:48:00.552Z,5.93
2022-08-23T22:50:27.141Z,6.20
2022-08-23T22:52:53.647Z,6.37
2022-08-23T22:55:21.551Z,5.53
2022-08-23T22:57:48.363Z,6.00
2022-08-23T23:00:16.151Z,6.00
2022-08-23T23:02:42.996Z,6.13
2022-08-23T23:05:09.563Z,5.80
2022-08-23T23:08:11.378Z,5.83
2022-08-23T23:10:37.901Z,4.93
2022-08-23T23:13:04.425Z,5.83
2022-08-23T23:15:30.924Z,5.77
2022-08-23T23:17:57.638Z,5.40
2022-08-23T23:20:40.764Z,5.33
2022-08-23T23:23:10.014Z,5.03
2022-08-23T23:25:40.697Z,6.10
2022-08-23T23:28:07.931Z,5.33
2022-08-23T23:30:35.730Z,5.57
2022-08-23T23:33:02.945Z,5.40
2022-08-23T23:35:29.790Z,5.20
2022-08-23T23:37:57.161Z,5.07
2022-08-23T23:40:24.432Z,5.13
2022-08-23T23:42:52.163Z,5.93
2022-08-23T23:45:21.413Z,4.90
2022-08-23T23:47:48.145Z,5.03
2022-08-23T23:50:15.257Z,5.37
2022-08-23T23:52:42.357Z,5.93
2022-08-23T23:55:11.869Z,5.73
2022-08-23T23:57:38.571Z,5.53
